createdAt,value
2022-08-14T00:02:01.504Z,2.70
2022-08-14T00:04:34.411Z,3.70
2022-08-14T00:07:18.973Z,3.30
2022-08-14T00:10:01.515Z,3.15
2022-08-14T00:12:39.567Z,3.00
2022-08-14T00:15:14.972Z,3.43
2022-08-14T00:17:47.119Z,3.28
2022-08-14T00:20:23.722Z,3.20
2022-08-14T00:23:11.835Z,3.58
2022-08-14T00:25:42.350Z,3.10
2022-08-14T00:28:15.412Z,3.38
2022-08-14T00:30:46.337Z,3.50
2022-08-14T00:33:14.527Z,3.50
2022-08-14T00:36:35.325Z,3.40
2022-08-14T00:38:34.868Z,3.40
2022-08-14T00:41:04.091Z,3.03
2022-08-14T00:43:32.549Z,3.33
2022-08-14T00:46:05.311Z,3.28
2022-08-14T00:48:38.441Z,3.75
2022-08-14T00:51:08.802Z,3.50
2022-08-14T00:53:39.849Z,3.70
2022-08-14T00:56:14.196Z,3.70
2022-08-14T00:58:48.426Z,3.50
2022-08-14T01:01:19.063Z,3.00
2022-08-14T01:03:52.677Z,3.60
2022-08-14T01:06:21.201Z,3.50
2022-08-14T01:08:59.124Z,3.78
2022-08-14T01:11:31.490Z,3.80
2022-08-14T01:14:04.977Z,4.28
2022-08-14T01:16:53.173Z,3.40
2022-08-14T01:19:41.645Z,3.70
2022-08-14T01:22:13.073Z,3.40
2022-08-14T01:24:43.388Z,3.58
2022-08-14T01:27:18.086Z,3.72
2022-08-14T01:30:00.608Z,3.83
2022-08-14T01:32:37.306Z,4.20
2022-08-14T01:35:18.572Z,4.20
2022-08-14T01:37:56.531Z,3.78
2022-08-14T01:40:36.474Z,3.70
2022-08-14T01:43:14.515Z,3.70
2022-08-14T01:45:42.885Z,3.80
2022-08-14T01:48:20.597Z,4.20
2022-08-14T01:50:49.472Z,3.80
2022-08-14T01:53:20.161Z,4.72
2022-08-14T01:55:51.528Z,4.30
2022-08-14T01:58:28.644Z,4.50
2022-08-14T02:00:58.603Z,4.13
2022-08-14T02:03:30.903Z,3.70
2022-08-14T02:06:00.069Z,4.20
2022-08-14T02:08:34.795Z,4.23
2022-08-14T02:11:22.417Z,4.15
2022-08-14T02:13:53.557Z,4.30
2022-08-14T02:16:25.350Z,4.50
2022-08-14T02:18:55.909Z,3.90
2022-08-14T02:21:24.078Z,4.30
2022-08-14T02:23:54.799Z,3.92
2022-08-14T02:26:29.821Z,4.05
2022-08-14T02:29:03.361Z,4.78
2022-08-14T02:31:41.954Z,4.10
2022-08-14T02:34:22.496Z,4.80
2022-08-14T02:37:03.949Z,4.60
2022-08-14T02:39:37.005Z,4.50
2022-08-14T02:42:06.833Z,4.60
2022-08-14T02:44:43.275Z,4.43
2022-08-14T02:47:20.957Z,4.97
2022-08-14T02:49:55.020Z,4.40
2022-08-14T02:52:55.535Z,5.25
2022-08-14T02:55:15.589Z,4.88
2022-08-14T02:57:44.149Z,4.53
2022-08-14T03:00:18.682Z,5.30
2022-08-14T03:02:56.342Z,4.30
2022-08-14T03:05:32.828Z,4.97
2022-08-14T03:08:08.739Z,5.05
2022-08-14T03:10:42.005Z,4.80
2022-08-14T03:13:19.542Z,5.00
2022-08-14T03:15:56.324Z,5.60
2022-08-14T03:18:31.166Z,4.73
2022-08-14T03:21:01.954Z,5.07
2022-08-14T03:23:34.135Z,4.97
2022-08-14T03:26:08.452Z,4.70
2022-08-14T03:28:36.846Z,5.32
2022-08-14T03:31:13.313Z,4.75
2022-08-14T03:33:41.811Z,4.97
2022-08-14T03:37:39.040Z,4.97
2022-08-14T03:39:12.322Z,5.30
2022-08-14T03:41:48.855Z,5.20
2022-08-14T03:45:27.350Z,5.40
2022-08-14T03:47:05.505Z,5.25
2022-08-14T03:49:34.094Z,5.80
2022-08-14T03:52:07.722Z,6.07
2022-08-14T03:54:46.665Z,6.07
2022-08-14T03:57:23.759Z,5.10
2022-08-14T03:59:51.948Z,6.10
2022-08-14T04:02:37.037Z,6.00
2022-08-14T04:05:11.662Z,6.22
2022-08-14T04:07:49.514Z,5.50
2022-08-14T04:10:32.327Z,6.75
2022-08-14T04:13:04.398Z,5.70
2022-08-14T04:15:52.829Z,6.10
2022-08-14T04:18:20.724Z,5.90
2022-08-14T04:20:51.893Z,6.20
2022-08-14T04:23:23.403Z,6.50
2022-08-14T04:25:54.033Z,6.10
2022-08-14T04:29:06.809Z,6.43
2022-08-14T04:31:12.307Z,5.95
2022-08-14T04:33:43.919Z,6.20
2022-08-14T04:36:15.737Z,5.70
2022-08-14T04:39:03.009Z,5.80
2022-08-14T04:41:48.449Z,5.80
2022-08-14T04:44:26.601Z,6.63
2022-08-14T04:47:22.437Z,6.50
2022-08-14T04:49:57.604Z,6.30
2022-08-14T04:52:26.085Z,6.00
2022-08-14T04:54:54.664Z,5.90
2022-08-14T04:57:23.357Z,5.80
2022-08-14T04:59:53.697Z,6.30
2022-08-14T05:02:27.316Z,6.07
2022-08-14T05:04:57.280Z,6.87
2022-08-14T05:07:46.953Z,6.50
2022-08-14T05:10:16.598Z,6.30
2022-08-14T05:13:11.079Z,7.00
2022-08-14T05:15:40.360Z,6.10
2022-08-14T05:18:17.647Z,7.00
2022-08-14T05:21:54.599Z,6.07
2022-08-14T05:23:51.890Z,6.43
2022-08-14T05:26:22.106Z,6.40
2022-08-14T05:28:50.388Z,6.70
2022-08-14T05:31:21.127Z,6.32
2022-08-14T05:33:54.936Z,6.77
2022-08-14T05:36:25.217Z,6.30
2022-08-14T05:38:55.329Z,6.10
2022-08-14T05:41:23.607Z,7.13
2022-08-14T05:44:12.031Z,6.72
2022-08-14T05:46:53.198Z,6.70
2022-08-14T05:49:22.964Z,7.13
2022-08-14T05:51:54.133Z,7.00
2022-08-14T05:54:27.098Z,6.32
2022-08-14T05:56:55.535Z,7.40
2022-08-14T05:59:36.805Z,6.82
2022-08-14T06:02:10.013Z,7.00
2022-08-14T06:04:38.780Z,7.60
2022-08-14T06:07:07.320Z,7.40
2022-08-14T06:09:40.599Z,7.13
2022-08-14T06:12:09.670Z,7.30
2022-08-14T06:14:38.778Z,7.70
2022-08-14T06:17:08.572Z,7.77
2022-08-14T06:19:36.576Z,7.65
2022-08-14T06:22:05.220Z,9.10
2022-08-14T06:24:34.959Z,8.48
2022-08-14T06:27:06.462Z,8.55
2022-08-14T06:29:39.532Z,8.00
2022-08-14T06:32:38.413Z,7.47
2022-08-14T06:35:04.169Z,7.68
2022-08-14T06:37:41.600Z,8.70
2022-08-14T06:40:25.678Z,7.85
2022-08-14T06:42:56.623Z,8.75
2022-08-14T06:45:27.849Z,8.25
2022-08-14T06:47:58.866Z,8.00
2022-08-14T06:50:28.597Z,7.50
2022-08-14T06:52:58.971Z,7.35
2022-08-14T06:55:28.201Z,7.37
2022-08-14T06:57:58.107Z,7.40
2022-08-14T07:00:30.530Z,6.57
2022-08-14T07:03:19.341Z,6.20
2022-08-14T07:05:55.417Z,6.32
2022-08-14T07:08:26.379Z,6.60
2022-08-14T07:11:00.100Z,6.40
2022-08-14T07:13:30.708Z,8.60
2022-08-14T07:16:05.692Z,8.45
2022-08-14T07:18:37.080Z,8.90
2022-08-14T07:21:09.852Z,9.13
2022-08-14T07:23:40.300Z,9.98
2022-08-14T07:26:13.592Z,8.70
2022-08-14T07:28:43.909Z,9.05
2022-08-14T07:31:13.377Z,9.35
2022-08-14T07:33:50.091Z,9.25
2022-08-14T07:36:27.021Z,9.20
2022-08-14T07:38:58.599Z,7.35
2022-08-14T07:41:33.472Z,7.40
2022-08-14T07:44:32.554Z,7.57
2022-08-14T07:46:50.871Z,8.65
2022-08-14T07:49:20.860Z,10.10
2022-08-14T07:51:52.145Z,8.38
2022-08-14T07:54:23.458Z,7.20
2022-08-14T07:56:59.767Z,7.30
2022-08-14T07:59:41.505Z,8.00
2022-08-14T08:02:18.673Z,8.20
2022-08-14T08:04:54.144Z,7.10
2022-08-14T08:07:23.611Z,7.38
2022-08-14T08:09:56.554Z,7.10
2022-08-14T08:12:30.136Z,7.35
2022-08-14T08:15:02.957Z,7.03
2022-08-14T08:17:38.232Z,7.30
2022-08-14T08:20:13.744Z,7.70
2022-08-14T08:22:43.442Z,7.70
2022-08-14T08:25:18.177Z,7.60
2022-08-14T08:27:56.309Z,6.35
2022-08-14T08:30:24.623Z,6.97
2022-08-14T08:32:54.825Z,7.33
2022-08-14T08:35:25.759Z,6.80
2022-08-14T08:39:17.065Z,6.57
2022-08-14T08:41:05.857Z,7.55
2022-08-14T08:43:46.214Z,6.57
2022-08-14T08:46:21.151Z,6.30
2022-08-14T08:48:53.811Z,6.60
2022-08-14T08:51:33.383Z,6.90
2022-08-14T08:54:05.242Z,6.97
2022-08-14T08:56:40.166Z,6.70
2022-08-14T08:59:22.702Z,6.88
2022-08-14T09:02:00.018Z,6.40
2022-08-14T09:04:29.183Z,5.80
2022-08-14T09:07:09.347Z,5.93
2022-08-14T09:09:54.019Z,6.22
2022-08-14T09:12:36.095Z,24.70
2022-08-14T09:15:11.657Z,6.80
2022-08-14T09:17:41.303Z,6.60
2022-08-14T09:20:11.613Z,5.55
2022-08-14T09:22:42.602Z,6.05
2022-08-14T09:25:16.769Z,5.73
2022-08-14T09:27:44.819Z,6.38
2022-08-14T09:30:32.443Z,6.10
2022-08-14T09:33:23.243Z,6.38
2022-08-14T09:36:04.205Z,6.10
2022-08-14T09:38:45.660Z,5.80
2022-08-14T09:41:24.550Z,6.10
2022-08-14T09:44:00.730Z,5.90
2022-08-14T09:46:34.415Z,5.40
2022-08-14T09:49:03.733Z,4.70
2022-08-14T09:51:51.839Z,5.33
2022-08-14T09:54:23.708Z,5.78
2022-08-14T09:56:57.198Z,6.10
2022-08-14T09:59:32.167Z,5.50
2022-08-14T10:02:01.900Z,6.15
2022-08-14T10:04:33.003Z,5.45
2022-08-14T10:07:03.963Z,6.07
2022-08-14T10:09:34.922Z,6.10
2022-08-14T10:12:05.057Z,5.40
2022-08-14T10:14:37.140Z,5.72
2022-08-14T10:17:08.390Z,5.10
2022-08-14T10:19:48.090Z,4.90
2022-08-14T10:23:12.295Z,4.82
2022-08-14T10:25:15.346Z,5.07
2022-08-14T10:27:46.474Z,4.60
2022-08-14T10:30:22.169Z,4.30
2022-08-14T10:32:52.398Z,4.40
2022-08-14T10:35:22.398Z,4.18
2022-08-14T10:37:53.178Z,4.07
2022-08-14T10:40:37.433Z,3.47
2022-08-14T10:43:22.917Z,3.67
2022-08-14T10:46:03.799Z,3.60
2022-08-14T10:48:58.129Z,3.65
2022-08-14T10:51:27.253Z,3.40
2022-08-14T10:54:01.910Z,3.15
2022-08-14T10:56:46.568Z,3.10
2022-08-14T10:59:14.541Z,3.00
2022-08-14T11:01:42.850Z,2.95
2022-08-14T11:04:25.152Z,2.60
2022-08-14T11:06:54.886Z,3.30
2022-08-14T11:09:26.319Z,4.00
2022-08-14T11:12:33.927Z,3.13
2022-08-14T11:14:59.866Z,3.38
2022-08-14T11:17:32.097Z,3.47
2022-08-14T11:20:02.487Z,3.50
2022-08-14T11:22:56.605Z,3.80
2022-08-14T11:25:23.766Z,3.47
2022-08-14T11:27:56.878Z,3.03
2022-08-14T11:30:49.802Z,3.42
2022-08-14T11:33:17.589Z,3.30
2022-08-14T11:35:49.677Z,3.13
2022-08-14T11:38:20.067Z,2.70
2022-08-14T11:40:48.758Z,2.58
2022-08-14T11:43:18.509Z,2.50
2022-08-14T11:45:57.260Z,2.70
2022-08-14T11:49:02.470Z,3.00
2022-08-14T11:51:24.243Z,2.60
2022-08-14T11:53:55.115Z,3.00
2022-08-14T11:56:25.749Z,2.60
2022-08-14T11:58:59.894Z,2.80
2022-08-14T12:01:30.881Z,2.40
2022-08-14T12:04:31.689Z,2.50
2022-08-14T12:06:58.708Z,2.28
2022-08-14T12:09:31.728Z,2.40
2022-08-14T12:11:59.944Z,2.80
2022-08-14T12:14:35.176Z,2.20
2022-08-14T12:17:12.238Z,2.90
2022-08-14T12:19:46.224Z,3.08
2022-08-14T12:22:25.856Z,2.70
2022-08-14T12:24:57.733Z,2.70
2022-08-14T12:27:41.651Z,3.00
2022-08-14T12:30:40.084Z,2.80
2022-08-14T12:33:25.761Z,3.10
2022-08-14T12:36:00.671Z,2.90
2022-08-14T12:38:35.946Z,3.15
2022-08-14T12:41:10.146Z,3.20
2022-08-14T12:43:48.030Z,3.00
2022-08-14T12:46:30.445Z,3.40
2022-08-14T12:49:02.554Z,3.25
2022-08-14T12:51:31.482Z,2.72
2022-08-14T12:54:00.460Z,3.40
2022-08-14T12:56:32.588Z,3.05
2022-08-14T12:59:01.470Z,2.63
2022-08-14T13:01:59.819Z,3.28
2022-08-14T13:04:22.732Z,2.90
2022-08-14T13:06:52.763Z,2.63
2022-08-14T13:09:23.110Z,2.80
2022-08-14T13:11:58.423Z,2.70
2022-08-14T13:14:30.005Z,2.50
2022-08-14T13:17:00.111Z,2.80
2022-08-14T13:19:29.355Z,2.60
2022-08-14T13:22:09.368Z,2.80
2022-08-14T13:24:40.549Z,2.70
2022-08-14T13:27:12.717Z,2.40
2022-08-14T13:29:46.577Z,2.70
2022-08-14T13:32:16.490Z,2.60
2022-08-14T13:34:46.041Z,2.50
2022-08-14T13:37:15.340Z,2.90
2022-08-14T13:39:56.187Z,2.75
2022-08-14T13:42:26.297Z,3.40
2022-08-14T13:44:55.546Z,3.20
2022-08-14T13:47:30.620Z,3.90
2022-08-14T13:50:02.763Z,3.13
2022-08-14T13:52:51.403Z,3.30
2022-08-14T13:55:23.370Z,3.30
2022-08-14T13:58:04.008Z,3.00
2022-08-14T14:00:35.913Z,3.20
2022-08-14T14:03:22.260Z,3.10
2022-08-14T14:05:54.311Z,3.10
2022-08-14T14:08:46.119Z,3.20
2022-08-14T14:11:16.106Z,3.00
2022-08-14T14:13:46.493Z,3.40
2022-08-14T14:16:25.216Z,2.95
2022-08-14T14:19:06.724Z,3.30
2022-08-14T14:21:38.068Z,3.17
2022-08-14T14:24:11.722Z,3.08
2022-08-14T14:26:46.205Z,3.40
2022-08-14T14:29:14.842Z,3.10
2022-08-14T14:31:47.852Z,3.47
2022-08-14T14:34:29.673Z,3.50
2022-08-14T14:37:02.540Z,3.10
2022-08-14T14:39:38.105Z,2.90
2022-08-14T14:42:31.917Z,3.05
2022-08-14T14:45:05.769Z,2.90
2022-08-14T14:47:35.080Z,3.15
2022-08-14T14:50:06.479Z,2.88
2022-08-14T14:52:37.136Z,3.00
2022-08-14T14:55:09.372Z,3.50
2022-08-14T14:57:37.797Z,3.10
2022-08-14T15:00:13.124Z,3.08
2022-08-14T15:02:43.760Z,3.03
2022-08-14T15:05:17.232Z,3.28
2022-08-14T15:07:49.868Z,3.50
2022-08-14T15:10:28.135Z,3.72
2022-08-14T15:13:00.159Z,3.38
2022-08-14T15:15:32.765Z,3.17
2022-08-14T15:18:01.596Z,3.13
2022-08-14T15:20:31.450Z,4.90
2022-08-14T15:23:00.975Z,3.50
2022-08-14T15:25:39.555Z,3.50
2022-08-14T15:28:12.732Z,3.08
2022-08-14T15:30:42.025Z,3.17
2022-08-14T15:33:11.087Z,2.90
2022-08-14T15:35:46.099Z,2.90
2022-08-14T15:38:16.378Z,3.10
2022-08-14T15:40:51.654Z,3.43
2022-08-14T15:43:27.243Z,2.70
2022-08-14T15:45:59.237Z,3.20
2022-08-14T15:48:29.585Z,3.40
2022-08-14T15:50:59.717Z,3.13
2022-08-14T15:53:31.446Z,3.78
2022-08-14T15:56:00.501Z,3.40
2022-08-14T15:58:28.818Z,3.47
2022-08-14T16:01:26.401Z,3.17
2022-08-14T16:04:02.029Z,3.28
2022-08-14T16:06:33.363Z,3.37
2022-08-14T16:09:11.311Z,3.30
2022-08-14T16:11:47.508Z,3.90
2022-08-14T16:14:21.890Z,3.65
2022-08-14T16:16:59.975Z,3.97
2022-08-14T16:19:31.566Z,3.45
2022-08-14T16:22:57.651Z,3.92
2022-08-14T16:25:02.414Z,4.00
2022-08-14T16:27:34.187Z,4.40
2022-08-14T16:30:10.973Z,3.60
2022-08-14T16:32:55.953Z,4.03
2022-08-14T16:38:44.598Z,3.80
2022-08-14T16:41:26.347Z,4.07
2022-08-14T16:43:59.278Z,3.90
2022-08-14T16:46:31.296Z,4.20
2022-08-14T16:49:01.615Z,4.13
2022-08-14T16:51:31.033Z,3.90
2022-08-14T16:54:20.663Z,4.60
2022-08-14T16:56:57.236Z,4.80
2022-08-14T16:59:30.630Z,6.00
2022-08-14T17:02:13.462Z,4.60
2022-08-14T17:04:49.064Z,4.68
2022-08-14T17:07:17.545Z,4.70
2022-08-14T17:09:48.581Z,4.50
2022-08-14T17:12:33.622Z,4.80
2022-08-14T17:15:09.951Z,4.50
2022-08-14T17:17:58.396Z,4.70
2022-08-14T17:21:01.755Z,4.72
2022-08-14T17:23:16.217Z,4.50
2022-08-14T17:25:49.416Z,5.50
2022-08-14T17:28:51.836Z,5.80
2022-08-14T17:31:09.762Z,5.30
2022-08-14T17:33:44.550Z,5.18
2022-08-14T17:36:22.907Z,4.80
2022-08-14T17:39:02.709Z,5.38
2022-08-14T17:41:43.599Z,4.55
2022-08-14T17:44:20.109Z,4.53
2022-08-14T17:46:56.914Z,5.00
2022-08-14T17:49:28.228Z,4.40
2022-08-14T17:52:07.525Z,4.70
2022-08-14T17:54:53.013Z,4.50
2022-08-14T17:57:35.298Z,4.40
2022-08-14T18:00:13.025Z,4.07
2022-08-14T18:02:50.540Z,4.90
2022-08-14T18:05:23.254Z,4.90
2022-08-14T18:08:32.727Z,4.50
2022-08-14T18:11:00.100Z,4.57
2022-08-14T18:13:51.123Z,4.40
2022-08-14T18:16:22.089Z,3.72
2022-08-14T18:18:51.575Z,4.10
2022-08-14T18:21:42.569Z,4.20
2022-08-14T18:24:20.337Z,4.20
2022-08-14T18:27:01.843Z,4.53
2022-08-14T18:29:33.156Z,4.60
2022-08-14T18:32:01.270Z,5.70
2022-08-14T18:34:50.915Z,6.57
2022-08-14T18:37:21.323Z,5.10
2022-08-14T18:40:01.282Z,4.83
2022-08-14T18:42:44.624Z,4.53
2022-08-14T18:45:28.415Z,4.65
2022-08-14T18:48:50.291Z,4.57
2022-08-14T18:51:45.768Z,4.60
2022-08-14T18:54:29.983Z,4.90
2022-08-14T18:57:02.659Z,5.00
2022-08-14T18:59:35.836Z,5.30
2022-08-14T19:02:42.675Z,5.45
2022-08-14T19:05:13.463Z,5.28
2022-08-14T19:07:43.427Z,5.10
2022-08-14T19:10:31.668Z,5.30
2022-08-14T19:13:12.195Z,5.25
2022-08-14T19:15:43.756Z,5.10
2022-08-14T19:18:26.521Z,5.70
2022-08-14T19:20:59.514Z,5.82
2022-08-14T19:23:42.942Z,5.93
2022-08-14T19:26:36.510Z,5.13
2022-08-14T19:29:25.712Z,5.30
2022-08-14T19:31:56.219Z,6.03
2022-08-14T19:34:40.372Z,5.60
2022-08-14T19:37:56.204Z,6.20
2022-08-14T19:40:33.902Z,6.30
2022-08-14T19:43:06.411Z,6.47
2022-08-14T19:45:35.433Z,6.40
2022-08-14T19:48:13.144Z,5.97
2022-08-14T19:50:44.398Z,6.15
2022-08-14T19:53:16.992Z,6.55
2022-08-14T19:55:59.318Z,6.25
2022-08-14T19:58:54.911Z,5.80
2022-08-14T20:01:36.352Z,5.75
2022-08-14T20:04:45.062Z,5.78
2022-08-14T20:07:04.368Z,5.63
2022-08-14T20:11:09.818Z,5.68
2022-08-14T20:12:35.512Z,5.50
2022-08-14T20:15:15.400Z,6.60
2022-08-14T20:17:52.533Z,5.60
2022-08-14T20:20:31.815Z,5.60
2022-08-14T20:23:02.050Z,5.83
2022-08-14T20:25:37.767Z,5.47
2022-08-14T20:28:31.704Z,5.40
2022-08-14T20:31:17.819Z,5.88
2022-08-14T20:34:06.700Z,5.50
2022-08-14T20:36:39.097Z,5.95
2022-08-14T20:39:15.354Z,5.65
2022-08-14T20:41:51.103Z,5.60
2022-08-14T20:44:40.452Z,5.50
2022-08-14T20:47:08.461Z,5.70
2022-08-14T20:49:37.281Z,6.07
2022-08-14T20:52:19.104Z,6.20
2022-08-14T20:54:51.681Z,5.53
2022-08-14T20:57:20.742Z,5.70
2022-08-14T20:59:57.166Z,5.90
2022-08-14T21:02:46.699Z,5.50
2022-08-14T21:05:21.968Z,6.38
2022-08-14T21:08:08.493Z,5.65
2022-08-14T21:10:44.126Z,5.60
2022-08-14T21:14:08.791Z,6.15
2022-08-14T21:16:34.279Z,5.82
2022-08-14T21:18:58.336Z,5.90
2022-08-14T21:21:40.856Z,6.28
2022-08-14T21:24:39.486Z,5.68
2022-08-14T21:27:09.423Z,6.10
2022-08-14T21:29:49.872Z,5.70
2022-08-14T21:32:33.873Z,6.23
2022-08-14T21:35:08.175Z,6.63
2022-08-14T21:37:45.288Z,6.55
2022-08-14T21:40:29.603Z,6.20
2022-08-14T21:43:04.986Z,6.95
2022-08-14T21:45:35.655Z,6.55
2022-08-14T21:48:10.547Z,6.28
2022-08-14T21:51:02.075Z,6.50
2022-08-14T21:53:32.830Z,6.47
2022-08-14T21:56:03.513Z,7.05
2022-08-14T21:58:51.713Z,6.43
2022-08-14T22:01:20.459Z,6.80
2022-08-14T22:03:54.829Z,6.65
2022-08-14T22:06:28.856Z,6.70
2022-08-14T22:08:58.181Z,7.20
2022-08-14T22:11:27.423Z,6.63
2022-08-14T22:14:02.413Z,7.10
2022-08-14T22:17:01.960Z,6.90
2022-08-14T22:19:47.247Z,7.70
2022-08-14T22:22:24.116Z,7.55
2022-08-14T22:25:00.074Z,7.13
2022-08-14T22:27:31.292Z,7.13
2022-08-14T22:30:01.385Z,7.40
2022-08-14T22:32:56.370Z,7.07
2022-08-14T22:35:18.668Z,7.50
2022-08-14T22:38:32.651Z,7.43
2022-08-14T22:41:12.493Z,7.30
2022-08-14T22:43:33.592Z,7.40
2022-08-14T22:46:03.403Z,6.93
2022-08-14T22:48:43.053Z,7.60
2022-08-14T22:51:13.406Z,7.30
2022-08-14T22:53:44.102Z,7.17
2022-08-14T22:56:21.488Z,7.50
2022-08-14T22:58:54.382Z,7.90
2022-08-14T23:01:55.729Z,7.80
2022-08-14T23:04:34.829Z,7.40
2022-08-14T23:07:22.085Z,7.70
2022-08-14T23:09:55.843Z,8.00
2022-08-14T23:12:27.778Z,7.95
2022-08-14T23:14:57.548Z,7.63
2022-08-14T23:17:26.436Z,7.50
2022-08-14T23:19:56.325Z,8.18
2022-08-14T23:22:26.060Z,7.10
2022-08-14T23:24:56.731Z,7.20
2022-08-14T23:27:32.146Z,7.53
2022-08-14T23:30:33.901Z,7.90
2022-08-14T23:33:03.295Z,8.35
2022-08-14T23:35:33.122Z,7.50
2022-08-14T23:38:03.143Z,7.95
2022-08-14T23:40:32.673Z,8.15
2022-08-14T23:43:07.080Z,7.88
2022-08-14T23:45:37.524Z,8.13
2022-08-14T23:48:09.992Z,8.00
2022-08-14T23:50:44.312Z,8.35
2022-08-14T23:53:28.566Z,8.25
2022-08-14T23:56:12.187Z,7.45
2022-08-14T23:58:42.219Z,7.47
